sensor_id;sensor_type;location;lat;lon;timestamp;temperature;humidity
40059;SHT31;25763;49.972;8.568;2022-09-12T00:01:25;14.37;83.83
40059;SHT31;25763;49.972;8.568;2022-09-12T00:03:53;14.45;83.80
40059;SHT31;25763;49.972;8.568;2022-09-12T00:06:28;14.45;83.50
40059;SHT31;25763;49.972;8.568;2022-09-12T00:08:58;14.35;84.08
40059;SHT31;25763;49.972;8.568;2022-09-12T00:11:24;14.35;84.02
40059;SHT31;25763;49.972;8.568;2022-09-12T00:13:50;14.34;84.20
40059;SHT31;25763;49.972;8.568;2022-09-12T00:16:21;14.23;84.51
40059;SHT31;25763;49.972;8.568;2022-09-12T00:18:47;14.21;84.48
40059;SHT31;25763;49.972;8.568;2022-09-12T00:21:14;14.23;84.35
40059;SHT31;25763;49.972;8.568;2022-09-12T00:23:40;14.30;84.09
40059;SHT31;25763;49.972;8.568;2022-09-12T00:26:05;14.33;84.03
40059;SHT31;25763;49.972;8.568;2022-09-12T00:28:33;14.20;84.40
40059;SHT31;25763;49.972;8.568;2022-09-12T00:31:03;14.03;84.71
40059;SHT31;25763;49.972;8.568;2022-09-12T00:33:28;13.96;85.02
40059;SHT31;25763;49.972;8.568;2022-09-12T00:35:54;14.06;84.85
40059;SHT31;25763;49.972;8.568;2022-09-12T00:38:19;14.10;84.65
40059;SHT31;25763;49.972;8.568;2022-09-12T00:40:46;14.18;84.37
40059;SHT31;25763;49.972;8.568;2022-09-12T00:46:03;14.14;84.25
40059;SHT31;25763;49.972;8.568;2022-09-12T00:48:53;13.98;84.77
40059;SHT31;25763;49.972;8.568;2022-09-12T00:51:20;13.78;85.35
40059;SHT31;25763;49.972;8.568;2022-09-12T00:53:47;13.73;85.77
40059;SHT31;25763;49.972;8.568;2022-09-12T00:56:16;13.73;85.75
40059;SHT31;25763;49.972;8.568;2022-09-12T00:58:47;13.54;86.10
40059;SHT31;25763;49.972;8.568;2022-09-12T01:01:15;13.71;85.77
40059;SHT31;25763;49.972;8.568;2022-09-12T01:03:41;13.81;85.51
40059;SHT31;25763;49.972;8.568;2022-09-12T01:06:23;13.91;85.13
40059;SHT31;25763;49.972;8.568;2022-09-12T01:08:50;13.98;84.86
40059;SHT31;25763;49.972;8.568;2022-09-12T01:11:17;14.00;84.55
40059;SHT31;25763;49.972;8.568;2022-09-12T01:13:44;14.12;84.30
40059;SHT31;25763;49.972;8.568;2022-09-12T01:16:10;14.09;84.04
40059;SHT31;25763;49.972;8.568;2022-09-12T01:25:08;14.02;84.27
40059;SHT31;25763;49.972;8.568;2022-09-12T01:27:49;13.82;84.90
40059;SHT31;25763;49.972;8.568;2022-09-12T01:33:04;13.85;84.89
40059;SHT31;25763;49.972;8.568;2022-09-12T01:35:31;13.91;84.74
40059;SHT31;25763;49.972;8.568;2022-09-12T01:38:07;13.95;84.56
40059;SHT31;25763;49.972;8.568;2022-09-12T01:43:33;13.95;84.44
40059;SHT31;25763;49.972;8.568;2022-09-12T01:46:10;13.98;84.40
40059;SHT31;25763;49.972;8.568;2022-09-12T01:48:43;14.02;84.13
40059;SHT31;25763;49.972;8.568;2022-09-12T01:51:31;14.03;83.87
40059;SHT31;25763;49.972;8.568;2022-09-12T01:54:06;14.08;83.74
40059;SHT31;25763;49.972;8.568;2022-09-12T01:56:35;14.10;83.59
40059;SHT31;25763;49.972;8.568;2022-09-12T01:59:12;14.10;83.37
40059;SHT31;25763;49.972;8.568;2022-09-12T02:01:48;14.03;83.67
40059;SHT31;25763;49.972;8.568;2022-09-12T02:04:23;14.05;83.56
40059;SHT31;25763;49.972;8.568;2022-09-12T02:07:05;14.03;83.44
40059;SHT31;25763;49.972;8.568;2022-09-12T02:09:38;14.02;83.23
40059;SHT31;25763;49.972;8.568;2022-09-12T02:12:07;14.03;83.21
40059;SHT31;25763;49.972;8.568;2022-09-12T02:14:37;13.85;83.89
40059;SHT31;25763;49.972;8.568;2022-09-12T02:17:15;13.67;84.91
40059;SHT31;25763;49.972;8.568;2022-09-12T02:19:46;13.70;84.87
40059;SHT31;25763;49.972;8.568;2022-09-12T02:22:16;13.71;84.83
40059;SHT31;25763;49.972;8.568;2022-09-12T02:24:45;13.70;84.97
40059;SHT31;25763;49.972;8.568;2022-09-12T02:27:25;13.75;84.64
40059;SHT31;25763;49.972;8.568;2022-09-12T02:29:52;13.75;84.59
40059;SHT31;25763;49.972;8.568;2022-09-12T02:37:59;13.78;84.04
40059;SHT31;25763;49.972;8.568;2022-09-12T02:40:27;13.79;84.03
40059;SHT31;25763;49.972;8.568;2022-09-12T02:42:53;13.81;83.89
40059;SHT31;25763;49.972;8.568;2022-09-12T02:45:19;13.79;83.87
40059;SHT31;25763;49.972;8.568;2022-09-12T02:47:49;13.62;84.49
40059;SHT31;25763;49.972;8.568;2022-09-12T02:50:15;13.34;85.60
40059;SHT31;25763;49.972;8.568;2022-09-12T02:52:41;13.22;86.14
40059;SHT31;25763;49.972;8.568;2022-09-12T02:55:07;13.26;86.06
40059;SHT31;25763;49.972;8.568;2022-09-12T02:57:36;13.32;85.93
40059;SHT31;25763;49.972;8.568;2022-09-12T03:00:02;13.32;85.79
40059;SHT31;25763;49.972;8.568;2022-09-12T03:05:23;13.15;85.91
40059;SHT31;25763;49.972;8.568;2022-09-12T03:16:03;12.87;86.78
40059;SHT31;25763;49.972;8.568;2022-09-12T03:21:34;12.73;87.22
40059;SHT31;25763;49.972;8.568;2022-09-12T03:26:57;12.61;87.68
40059;SHT31;25763;49.972;8.568;2022-09-12T03:29:26;12.61;87.62
40059;SHT31;25763;49.972;8.568;2022-09-12T03:31:54;12.46;87.75
40059;SHT31;25763;49.972;8.568;2022-09-12T03:34:21;12.35;88.28
40059;SHT31;25763;49.972;8.568;2022-09-12T03:36:47;12.38;88.37
40059;SHT31;25763;49.972;8.568;2022-09-12T03:39:13;12.38;88.43
40059;SHT31;25763;49.972;8.568;2022-09-12T03:41:38;12.40;88.38
40059;SHT31;25763;49.972;8.568;2022-09-12T03:44:04;12.39;88.42
40059;SHT31;25763;49.972;8.568;2022-09-12T03:46:30;12.33;88.41
40059;SHT31;25763;49.972;8.568;2022-09-12T03:48:55;12.26;88.65
40059;SHT31;25763;49.972;8.568;2022-09-12T03:51:21;12.24;88.89
40059;SHT31;25763;49.972;8.568;2022-09-12T03:53:46;12.38;88.74
40059;SHT31;25763;49.972;8.568;2022-09-12T03:56:12;12.52;88.34
40059;SHT31;25763;49.972;8.568;2022-09-12T03:58:38;12.64;88.11
40059;SHT31;25763;49.972;8.568;2022-09-12T04:01:11;12.74;87.77
40059;SHT31;25763;49.972;8.568;2022-09-12T04:03:41;12.81;87.37
40059;SHT31;25763;49.972;8.568;2022-09-12T04:06:08;12.82;87.23
40059;SHT31;25763;49.972;8.568;2022-09-12T04:08:35;12.94;86.92
40059;SHT31;25763;49.972;8.568;2022-09-12T04:11:12;13.01;86.60
40059;SHT31;25763;49.972;8.568;2022-09-12T04:13:39;12.99;86.27
40059;SHT31;25763;49.972;8.568;2022-09-12T04:16:05;13.05;86.25
40059;SHT31;25763;49.972;8.568;2022-09-12T04:18:31;13.05;86.47
40059;SHT31;25763;49.972;8.568;2022-09-12T04:20:57;13.08;86.28
40059;SHT31;25763;49.972;8.568;2022-09-12T04:23:23;13.16;86.29
40059;SHT31;25763;49.972;8.568;2022-09-12T04:25:58;13.15;86.25
40059;SHT31;25763;49.972;8.568;2022-09-12T04:28:25;13.06;87.02
40059;SHT31;25763;49.972;8.568;2022-09-12T04:30:50;13.02;87.51
40059;SHT31;25763;49.972;8.568;2022-09-12T04:33:16;13.06;87.65
40059;SHT31;25763;49.972;8.568;2022-09-12T04:35:42;13.11;87.33
40059;SHT31;25763;49.972;8.568;2022-09-12T04:38:08;13.19;86.97
40059;SHT31;25763;49.972;8.568;2022-09-12T04:40:33;13.11;87.49
40059;SHT31;25763;49.972;8.568;2022-09-12T04:42:59;12.97;87.60
40059;SHT31;25763;49.972;8.568;2022-09-12T04:45:24;12.89;87.70
40059;SHT31;25763;49.972;8.568;2022-09-12T04:47:50;12.88;87.73
40059;SHT31;25763;49.972;8.568;2022-09-12T04:50:15;12.88;87.68
40059;SHT31;25763;49.972;8.568;2022-09-12T04:52:40;12.94;87.43
40059;SHT31;25763;49.972;8.568;2022-09-12T04:55:07;12.95;87.18
40059;SHT31;25763;49.972;8.568;2022-09-12T04:57:32;12.80;87.02
40059;SHT31;25763;49.972;8.568;2022-09-12T04:59:58;12.75;87.10
40059;SHT31;25763;49.972;8.568;2022-09-12T05:02:24;12.74;87.45
40059;SHT31;25763;49.972;8.568;2022-09-12T05:04:50;12.70;87.77
40059;SHT31;25763;49.972;8.568;2022-09-12T05:07:17;12.68;87.86
40059;SHT31;25763;49.972;8.568;2022-09-12T05:09:43;12.65;87.87
40059;SHT31;25763;49.972;8.568;2022-09-12T05:12:09;12.55;88.03
40059;SHT31;25763;49.972;8.568;2022-09-12T05:14:35;12.52;88.21
40059;SHT31;25763;49.972;8.568;2022-09-12T05:17:00;12.56;88.24
40059;SHT31;25763;49.972;8.568;2022-09-12T05:19:26;12.59;88.39
40059;SHT31;25763;49.972;8.568;2022-09-12T05:21:52;12.61;88.42
40059;SHT31;25763;49.972;8.568;2022-09-12T05:24:17;12.59;88.72
40059;SHT31;25763;49.972;8.568;2022-09-12T05:26:42;12.57;88.96
40059;SHT31;25763;49.972;8.568;2022-09-12T05:29:08;12.64;88.98
40059;SHT31;25763;49.972;8.568;2022-09-12T05:31:33;12.61;88.86
40059;SHT31;25763;49.972;8.568;2022-09-12T05:33:59;12.67;88.95
40059;SHT31;25763;49.972;8.568;2022-09-12T05:36:27;12.68;89.04
40059;SHT31;25763;49.972;8.568;2022-09-12T05:38:53;12.67;89.11
40059;SHT31;25763;49.972;8.568;2022-09-12T05:41:21;12.77;89.13
40059;SHT31;25763;49.972;8.568;2022-09-12T05:43:51;12.89;89.02
40059;SHT31;25763;49.972;8.568;2022-09-12T05:46:19;13.05;88.74
40059;SHT31;25763;49.972;8.568;2022-09-12T05:48:46;13.08;88.79
40059;SHT31;25763;49.972;8.568;2022-09-12T05:51:14;13.08;89.01
40059;SHT31;25763;49.972;8.568;2022-09-12T05:53:44;13.08;89.08
40059;SHT31;25763;49.972;8.568;2022-09-12T05:56:12;13.12;89.08
40059;SHT31;25763;49.972;8.568;2022-09-12T05:58:39;13.18;89.16
40059;SHT31;25763;49.972;8.568;2022-09-12T06:01:07;13.24;89.02
40059;SHT31;25763;49.972;8.568;2022-09-12T06:03:39;13.23;89.12
40059;SHT31;25763;49.972;8.568;2022-09-12T06:06:05;13.18;89.26
40059;SHT31;25763;49.972;8.568;2022-09-12T06:08:32;13.30;89.41
40059;SHT31;25763;49.972;8.568;2022-09-12T06:11:03;13.27;89.20
40059;SHT31;25763;49.972;8.568;2022-09-12T06:13:33;13.36;89.14
40059;SHT31;25763;49.972;8.568;2022-09-12T06:18:38;13.39;89.08
40059;SHT31;25763;49.972;8.568;2022-09-12T06:21:05;13.40;88.94
40059;SHT31;25763;49.972;8.568;2022-09-12T06:23:31;13.47;88.86
40059;SHT31;25763;49.972;8.568;2022-09-12T06:25:57;13.48;88.83
40059;SHT31;25763;49.972;8.568;2022-09-12T06:28:23;13.58;88.80
40059;SHT31;25763;49.972;8.568;2022-09-12T06:30:49;13.55;88.51
40059;SHT31;25763;49.972;8.568;2022-09-12T06:33:15;13.68;88.56
40059;SHT31;25763;49.972;8.568;2022-09-12T06:35:41;13.78;88.34
40059;SHT31;25763;49.972;8.568;2022-09-12T06:38:06;13.81;88.16
40059;SHT31;25763;49.972;8.568;2022-09-12T06:40:32;13.91;88.20
40059;SHT31;25763;49.972;8.568;2022-09-12T06:42:57;14.10;88.04
40059;SHT31;25763;49.972;8.568;2022-09-12T06:45:23;14.16;87.46
40059;SHT31;25763;49.972;8.568;2022-09-12T06:47:48;14.14;87.48
40059;SHT31;25763;49.972;8.568;2022-09-12T06:50:13;14.26;87.55
40059;SHT31;25763;49.972;8.568;2022-09-12T06:52:39;14.28;87.21
40059;SHT31;25763;49.972;8.568;2022-09-12T06:55:04;14.44;87.22
40059;SHT31;25763;49.972;8.568;2022-09-12T06:57:30;14.71;87.16
40059;SHT31;25763;49.972;8.568;2022-09-12T06:59:56;14.79;86.43
40059;SHT31;25763;49.972;8.568;2022-09-12T07:02:22;14.90;86.22
40059;SHT31;25763;49.972;8.568;2022-09-12T07:04:50;15.03;85.98
40059;SHT31;25763;49.972;8.568;2022-09-12T07:07:16;15.21;85.80
40059;SHT31;25763;49.972;8.568;2022-09-12T07:09:41;15.12;85.07
40059;SHT31;25763;49.972;8.568;2022-09-12T07:12:07;15.18;85.32
40059;SHT31;25763;49.972;8.568;2022-09-12T07:14:32;15.28;85.10
40059;SHT31;25763;49.972;8.568;2022-09-12T07:16:57;15.52;85.34
40059;SHT31;25763;49.972;8.568;2022-09-12T07:19:23;15.80;85.38
40059;SHT31;25763;49.972;8.568;2022-09-12T07:21:49;15.87;84.33
40059;SHT31;25763;49.972;8.568;2022-09-12T07:24:14;15.96;84.11
40059;SHT31;25763;49.972;8.568;2022-09-12T07:26:40;15.83;82.75
40059;SHT31;25763;49.972;8.568;2022-09-12T07:29:06;15.88;83.13
40059;SHT31;25763;49.972;8.568;2022-09-12T07:31:36;15.93;83.16
40059;SHT31;25763;49.972;8.568;2022-09-12T07:34:04;16.05;83.04
40059;SHT31;25763;49.972;8.568;2022-09-12T07:36:30;15.97;82.13
40059;SHT31;25763;49.972;8.568;2022-09-12T07:38:56;16.10;83.10
40059;SHT31;25763;49.972;8.568;2022-09-12T07:41:27;16.18;82.50
40059;SHT31;25763;49.972;8.568;2022-09-12T07:43:54;16.20;81.71
40059;SHT31;25763;49.972;8.568;2022-09-12T07:46:20;16.42;82.85
40059;SHT31;25763;49.972;8.568;2022-09-12T07:48:53;16.47;82.16
40059;SHT31;25763;49.972;8.568;2022-09-12T07:51:20;16.61;81.67
40059;SHT31;25763;49.972;8.568;2022-09-12T07:53:47;16.71;81.44
40059;SHT31;25763;49.972;8.568;2022-09-12T07:56:14;16.71;80.65
40059;SHT31;25763;49.972;8.568;2022-09-12T07:58:40;16.85;81.06
40059;SHT31;25763;49.972;8.568;2022-09-12T08:01:14;17.05;80.48
40059;SHT31;25763;49.972;8.568;2022-09-12T08:03:44;17.25;80.93
40059;SHT31;25763;49.972;8.568;2022-09-12T08:06:16;17.29;80.18
40059;SHT31;25763;49.972;8.568;2022-09-12T08:08:44;17.47;80.70
40059;SHT31;25763;49.972;8.568;2022-09-12T08:11:12;17.63;79.53
40059;SHT31;25763;49.972;8.568;2022-09-12T08:13:38;17.65;79.33
40059;SHT31;25763;49.972;8.568;2022-09-12T08:16:12;17.44;78.58
40059;SHT31;25763;49.972;8.568;2022-09-12T08:18:37;17.63;79.46
40059;SHT31;25763;49.972;8.568;2022-09-12T08:21:11;17.93;81.29
40059;SHT31;25763;49.972;8.568;2022-09-12T08:23:36;17.98;79.85
40059;SHT31;25763;49.972;8.568;2022-09-12T08:26:03;17.82;78.70
40059;SHT31;25763;49.972;8.568;2022-09-12T08:28:30;17.86;77.96
40059;SHT31;25763;49.972;8.568;2022-09-12T08:31:01;17.91;77.71
40059;SHT31;25763;49.972;8.568;2022-09-12T08:33:27;18.09;79.09
40059;SHT31;25763;49.972;8.568;2022-09-12T08:36:17;18.44;80.45
40059;SHT31;25763;49.972;8.568;2022-09-12T08:38:46;18.26;77.31
40059;SHT31;25763;49.972;8.568;2022-09-12T08:49:09;18.77;75.99
40059;SHT31;25763;49.972;8.568;2022-09-12T08:51:36;18.86;75.70
40059;SHT31;25763;49.972;8.568;2022-09-12T08:54:04;19.14;77.58
40059;SHT31;25763;49.972;8.568;2022-09-12T08:56:35;19.27;75.16
40059;SHT31;25763;49.972;8.568;2022-09-12T08:59:02;19.46;74.78
40059;SHT31;25763;49.972;8.568;2022-09-12T09:01:34;19.49;73.84
40059;SHT31;25763;49.972;8.568;2022-09-12T09:04:36;19.51;72.51
40059;SHT31;25763;49.972;8.568;2022-09-12T09:07:32;19.69;72.41
40059;SHT31;25763;49.972;8.568;2022-09-12T09:10:24;19.88;71.77
40059;SHT31;25763;49.972;8.568;2022-09-12T09:12:59;20.00;71.71
40059;SHT31;25763;49.972;8.568;2022-09-12T09:15:45;19.87;69.25
40059;SHT31;25763;49.972;8.568;2022-09-12T09:18:28;19.83;69.76
40059;SHT31;25763;49.972;8.568;2022-09-12T09:21:01;19.94;70.27
40059;SHT31;25763;49.972;8.568;2022-09-12T09:23:30;20.15;70.87
40059;SHT31;25763;49.972;8.568;2022-09-12T09:26:12;20.38;71.73
40059;SHT31;25763;49.972;8.568;2022-09-12T09:28:45;20.66;73.08
40059;SHT31;25763;49.972;8.568;2022-09-12T09:31:17;20.61;68.84
40059;SHT31;25763;49.972;8.568;2022-09-12T09:33:45;20.69;70.35
40059;SHT31;25763;49.972;8.568;2022-09-12T09:36:29;20.64;67.58
40059;SHT31;25763;49.972;8.568;2022-09-12T09:39:22;20.83;70.75
40059;SHT31;25763;49.972;8.568;2022-09-12T09:44:51;21.06;69.27
40059;SHT31;25763;49.972;8.568;2022-09-12T09:47:17;20.98;66.28
40059;SHT31;25763;49.972;8.568;2022-09-12T09:49:44;20.83;65.51
40059;SHT31;25763;49.972;8.568;2022-09-12T09:52:13;20.95;66.20
40059;SHT31;25763;49.972;8.568;2022-09-12T09:54:45;21.19;65.84
40059;SHT31;25763;49.972;8.568;2022-09-12T10:00:32;21.16;65.17
40059;SHT31;25763;49.972;8.568;2022-09-12T10:05:27;21.28;63.66
40059;SHT31;25763;49.972;8.568;2022-09-12T10:07:53;21.28;63.14
40059;SHT31;25763;49.972;8.568;2022-09-12T10:10:19;21.35;62.33
40059;SHT31;25763;49.972;8.568;2022-09-12T10:12:47;21.63;64.08
40059;SHT31;25763;49.972;8.568;2022-09-12T10:15:24;21.61;62.55
40059;SHT31;25763;49.972;8.568;2022-09-12T10:17:53;21.65;63.93
40059;SHT31;25763;49.972;8.568;2022-09-12T10:23:06;21.91;64.68
40059;SHT31;25763;49.972;8.568;2022-09-12T10:25:39;21.79;61.35
40059;SHT31;25763;49.972;8.568;2022-09-12T10:28:20;21.81;61.29
40059;SHT31;25763;49.972;8.568;2022-09-12T10:30:51;21.75;61.10
40059;SHT31;25763;49.972;8.568;2022-09-12T10:33:17;21.85;61.63
40059;SHT31;25763;49.972;8.568;2022-09-12T10:35:47;21.92;58.62
40059;SHT31;25763;49.972;8.568;2022-09-12T10:38:22;22.04;58.66
40059;SHT31;25763;49.972;8.568;2022-09-12T10:40:56;22.08;60.47
40059;SHT31;25763;49.972;8.568;2022-09-12T10:43:38;22.04;59.99
40059;SHT31;25763;49.972;8.568;2022-09-12T10:48:38;22.23;59.04
40059;SHT31;25763;49.972;8.568;2022-09-12T10:51:03;22.19;57.27
40059;SHT31;25763;49.972;8.568;2022-09-12T10:53:40;22.24;56.64
40059;SHT31;25763;49.972;8.568;2022-09-12T10:56:15;22.27;57.02
40059;SHT31;25763;49.972;8.568;2022-09-12T11:11:52;22.56;56.22
40059;SHT31;25763;49.972;8.568;2022-09-12T11:17:21;22.93;56.69
40059;SHT31;25763;49.972;8.568;2022-09-12T11:25:30;22.93;56.16
40059;SHT31;25763;49.972;8.568;2022-09-12T11:30:49;22.89;55.57
40059;SHT31;25763;49.972;8.568;2022-09-12T11:33:41;23.31;56.50
40059;SHT31;25763;49.972;8.568;2022-09-12T11:36:15;23.65;58.57
40059;SHT31;25763;49.972;8.568;2022-09-12T11:38:51;23.89;56.38
40059;SHT31;25763;49.972;8.568;2022-09-12T11:41:25;24.06;56.43
40059;SHT31;25763;49.972;8.568;2022-09-12T11:46:39;24.29;58.37
40059;SHT31;25763;49.972;8.568;2022-09-12T11:54:42;23.55;55.43
40059;SHT31;25763;49.972;8.568;2022-09-12T11:57:15;23.31;54.49
40059;SHT31;25763;49.972;8.568;2022-09-12T12:00:04;23.45;53.14
40059;SHT31;25763;49.972;8.568;2022-09-12T12:02:54;23.63;54.83
40059;SHT31;25763;49.972;8.568;2022-09-12T12:05:47;23.79;54.23
40059;SHT31;25763;49.972;8.568;2022-09-12T12:08:16;23.93;53.80
40059;SHT31;25763;49.972;8.568;2022-09-12T12:10:49;24.07;55.71
40059;SHT31;25763;49.972;8.568;2022-09-12T12:13:29;23.75;53.17
40059;SHT31;25763;49.972;8.568;2022-09-12T12:18:30;23.79;53.72
40059;SHT31;25763;49.972;8.568;2022-09-12T12:21:20;23.90;53.67
40059;SHT31;25763;49.972;8.568;2022-09-12T12:26:41;24.04;54.64
40059;SHT31;25763;49.972;8.568;2022-09-12T12:34:36;24.41;52.61
40059;SHT31;25763;49.972;8.568;2022-09-12T12:44:59;24.13;53.12
40059;SHT31;25763;49.972;8.568;2022-09-12T12:47:33;24.07;53.04
40059;SHT31;25763;49.972;8.568;2022-09-12T12:55:16;24.86;52.89
40059;SHT31;25763;49.972;8.568;2022-09-12T12:57:47;24.90;54.08
40059;SHT31;25763;49.972;8.568;2022-09-12T13:02:58;24.82;50.31
40059;SHT31;25763;49.972;8.568;2022-09-12T13:05:26;24.62;50.77
40059;SHT31;25763;49.972;8.568;2022-09-12T13:07:59;24.44;51.33
40059;SHT31;25763;49.972;8.568;2022-09-12T13:10:28;24.65;53.04
40059;SHT31;25763;49.972;8.568;2022-09-12T13:13:00;24.83;52.73
40059;SHT31;25763;49.972;8.568;2022-09-12T13:18:09;25.28;53.14
40059;SHT31;25763;49.972;8.568;2022-09-12T13:20:45;25.32;51.19
40059;SHT31;25763;49.972;8.568;2022-09-12T13:23:24;25.53;54.17
40059;SHT31;25763;49.972;8.568;2022-09-12T13:25:55;25.55;50.45
40059;SHT31;25763;49.972;8.568;2022-09-12T13:28:21;25.67;51.41
40059;SHT31;25763;49.972;8.568;2022-09-12T13:30:55;25.59;51.62
40059;SHT31;25763;49.972;8.568;2022-09-12T13:33:36;25.06;50.25
40059;SHT31;25763;49.972;8.568;2022-09-12T13:39:38;25.35;52.50
40059;SHT31;25763;49.972;8.568;2022-09-12T13:44:10;25.41;51.83
40059;SHT31;25763;49.972;8.568;2022-09-12T13:46:37;25.41;50.11
40059;SHT31;25763;49.972;8.568;2022-09-12T13:51:43;25.36;49.69
40059;SHT31;25763;49.972;8.568;2022-09-12T13:54:15;25.22;50.83
40059;SHT31;25763;49.972;8.568;2022-09-12T13:56:48;25.17;51.01
40059;SHT31;25763;49.972;8.568;2022-09-12T13:59:14;25.42;53.67
40059;SHT31;25763;49.972;8.568;2022-09-12T14:01:41;25.35;50.29
40059;SHT31;25763;49.972;8.568;2022-09-12T14:04:19;25.58;51.32
40059;SHT31;25763;49.972;8.568;2022-09-12T14:07:16;25.63;50.25
40059;SHT31;25763;49.972;8.568;2022-09-12T14:09:45;25.77;51.30
40059;SHT31;25763;49.972;8.568;2022-09-12T14:12:33;25.74;49.69
40059;SHT31;25763;49.972;8.568;2022-09-12T14:14:59;25.50;50.50
40059;SHT31;25763;49.972;8.568;2022-09-12T14:17:36;25.42;50.65
40059;SHT31;25763;49.972;8.568;2022-09-12T14:20:11;25.62;49.93
40059;SHT31;25763;49.972;8.568;2022-09-12T14:22:38;25.66;50.68
40059;SHT31;25763;49.972;8.568;2022-09-12T14:25:05;25.71;50.38
40059;SHT31;25763;49.972;8.568;2022-09-12T14:27:54;25.76;49.45
40059;SHT31;25763;49.972;8.568;2022-09-12T14:30:25;25.67;47.69
40059;SHT31;25763;49.972;8.568;2022-09-12T14:35:39;25.24;49.08
40059;SHT31;25763;49.972;8.568;2022-09-12T14:40:41;25.43;49.38
40059;SHT31;25763;49.972;8.568;2022-09-12T14:45:41;25.25;48.73
40059;SHT31;25763;49.972;8.568;2022-09-12T14:48:17;25.45;50.23
40059;SHT31;25763;49.972;8.568;2022-09-12T14:50:47;25.39;50.08
40059;SHT31;25763;49.972;8.568;2022-09-12T14:55:44;25.02;48.52
40059;SHT31;25763;49.972;8.568;2022-09-12T15:00:59;24.84;48.69
40059;SHT31;25763;49.972;8.568;2022-09-12T15:05:51;24.72;49.08
40059;SHT31;25763;49.972;8.568;2022-09-12T15:08:16;24.80;49.93
40059;SHT31;25763;49.972;8.568;2022-09-12T15:10:42;24.93;50.65
40059;SHT31;25763;49.972;8.568;2022-09-12T15:15:34;24.90;50.40
40059;SHT31;25763;49.972;8.568;2022-09-12T15:17:59;24.79;49.59
40059;SHT31;25763;49.972;8.568;2022-09-12T15:20:25;24.75;50.40
40059;SHT31;25763;49.972;8.568;2022-09-12T15:22:51;24.79;50.88
40059;SHT31;25763;49.972;8.568;2022-09-12T15:25:16;24.82;51.10
40059;SHT31;25763;49.972;8.568;2022-09-12T15:27:43;24.84;50.91
40059;SHT31;25763;49.972;8.568;2022-09-12T15:30:08;24.82;49.41
40059;SHT31;25763;49.972;8.568;2022-09-12T15:32:35;24.79;49.49
40059;SHT31;25763;49.972;8.568;2022-09-12T15:35:01;24.79;50.03
40059;SHT31;25763;49.972;8.568;2022-09-12T15:37:27;24.82;51.10
40059;SHT31;25763;49.972;8.568;2022-09-12T15:39:53;24.76;50.01
40059;SHT31;25763;49.972;8.568;2022-09-12T15:42:26;24.77;50.82
40059;SHT31;25763;49.972;8.568;2022-09-12T15:44:52;24.75;51.12
40059;SHT31;25763;49.972;8.568;2022-09-12T15:47:17;24.72;51.46
40059;SHT31;25763;49.972;8.568;2022-09-12T15:49:43;24.75;51.25
40059;SHT31;25763;49.972;8.568;2022-09-12T15:52:13;24.66;50.06
40059;SHT31;25763;49.972;8.568;2022-09-12T15:54:39;24.62;49.52
40059;SHT31;25763;49.972;8.568;2022-09-12T15:57:05;24.65;51.15
40059;SHT31;25763;49.972;8.568;2022-09-12T15:59:30;24.51;50.49
40059;SHT31;25763;49.972;8.568;2022-09-12T16:01:55;24.31;50.66
40059;SHT31;25763;49.972;8.568;2022-09-12T16:04:23;24.37;50.57
40059;SHT31;25763;49.972;8.568;2022-09-12T16:06:50;24.24;50.25
40059;SHT31;25763;49.972;8.568;2022-09-12T16:09:15;24.21;50.03
40059;SHT31;25763;49.972;8.568;2022-09-12T16:11:41;23.92;50.87
40059;SHT31;25763;49.972;8.568;2022-09-12T16:14:07;23.97;51.76
40059;SHT31;25763;49.972;8.568;2022-09-12T16:16:32;24.00;52.19
40059;SHT31;25763;49.972;8.568;2022-09-12T16:18:59;23.94;53.56
40059;SHT31;25763;49.972;8.568;2022-09-12T16:21:24;23.88;54.24
40059;SHT31;25763;49.972;8.568;2022-09-12T16:23:51;23.75;52.27
40059;SHT31;25763;49.972;8.568;2022-09-12T16:26:16;23.66;53.46
40059;SHT31;25763;49.972;8.568;2022-09-12T16:28:42;23.72;54.03
40059;SHT31;25763;49.972;8.568;2022-09-12T16:31:11;23.50;52.65
40059;SHT31;25763;49.972;8.568;2022-09-12T16:33:37;23.54;52.74
40059;SHT31;25763;49.972;8.568;2022-09-12T16:36:08;23.48;53.69
40059;SHT31;25763;49.972;8.568;2022-09-12T16:38:39;23.47;53.17
40059;SHT31;25763;49.972;8.568;2022-09-12T16:41:05;23.35;53.08
40059;SHT31;25763;49.972;8.568;2022-09-12T16:43:33;23.40;55.04
40059;SHT31;25763;49.972;8.568;2022-09-12T16:48:28;23.33;55.31
40059;SHT31;25763;49.972;8.568;2022-09-12T16:50:58;23.23;53.22
40059;SHT31;25763;49.972;8.568;2022-09-12T16:53:28;23.27;55.52
40059;SHT31;25763;49.972;8.568;2022-09-12T16:55:53;23.19;55.80
40059;SHT31;25763;49.972;8.568;2022-09-12T16:58:18;23.17;57.97
40059;SHT31;25763;49.972;8.568;2022-09-12T17:00:44;23.04;58.25
40059;SHT31;25763;49.972;8.568;2022-09-12T17:03:09;22.99;58.99
40059;SHT31;25763;49.972;8.568;2022-09-12T17:05:35;22.76;58.09
40059;SHT31;25763;49.972;8.568;2022-09-12T17:08:00;22.75;59.59
40059;SHT31;25763;49.972;8.568;2022-09-12T17:10:26;22.68;59.88
40059;SHT31;25763;49.972;8.568;2022-09-12T17:12:52;22.64;59.33
40059;SHT31;25763;49.972;8.568;2022-09-12T17:15:17;22.57;60.23
40059;SHT31;25763;49.972;8.568;2022-09-12T17:17:42;22.49;60.44
40059;SHT31;25763;49.972;8.568;2022-09-12T17:20:08;22.50;59.95
40059;SHT31;25763;49.972;8.568;2022-09-12T17:22:33;22.50;59.41
40059;SHT31;25763;49.972;8.568;2022-09-12T17:24:59;22.47;60.21
40059;SHT31;25763;49.972;8.568;2022-09-12T17:27:24;22.43;60.97
40059;SHT31;25763;49.972;8.568;2022-09-12T17:29:49;22.37;63.62
40059;SHT31;25763;49.972;8.568;2022-09-12T17:32:15;22.34;62.35
40059;SHT31;25763;49.972;8.568;2022-09-12T17:34:40;22.24;62.56
40059;SHT31;25763;49.972;8.568;2022-09-12T17:37:06;22.17;62.83
40059;SHT31;25763;49.972;8.568;2022-09-12T17:39:31;22.09;63.22
40059;SHT31;25763;49.972;8.568;2022-09-12T17:41:56;22.01;63.93
40059;SHT31;25763;49.972;8.568;2022-09-12T17:44:23;21.87;64.25
40059;SHT31;25763;49.972;8.568;2022-09-12T17:46:48;21.79;63.32
40059;SHT31;25763;49.972;8.568;2022-09-12T17:49:15;21.71;64.58
40059;SHT31;25763;49.972;8.568;2022-09-12T17:51:42;21.68;64.24
40059;SHT31;25763;49.972;8.568;2022-09-12T17:54:13;21.64;64.80
40059;SHT31;25763;49.972;8.568;2022-09-12T17:56:40;21.57;65.29
40059;SHT31;25763;49.972;8.568;2022-09-12T17:59:07;21.53;65.59
40059;SHT31;25763;49.972;8.568;2022-09-12T18:01:34;21.50;65.98
40059;SHT31;25763;49.972;8.568;2022-09-12T18:04:18;21.42;66.14
40059;SHT31;25763;49.972;8.568;2022-09-12T18:06:44;21.38;66.50
40059;SHT31;25763;49.972;8.568;2022-09-12T18:09:17;21.30;66.99
40059;SHT31;25763;49.972;8.568;2022-09-12T18:11:44;21.20;66.99
40059;SHT31;25763;49.972;8.568;2022-09-12T18:14:09;21.15;66.98
40059;SHT31;25763;49.972;8.568;2022-09-12T18:16:35;21.06;67.27